Terminal Aerodrome Forecast
Issued by NWS

Home | Current Version | Previous Version | Graphics & Text | Print | Product List | Glossary On
Versions: 1 2 3 4 5 6 7 8 9 10 11 12 13 14 15 16 17 18
000
FTUS43 KBIS 271700 AAC
TAFMOT
TAF AMD
KMOT 271710Z 2717/2812 16014KT P6SM BKN015
     FM271900 18011G18KT P6SM BKN040
     FM272000 31011G18KT P6SM BKN080=

USA.gov is the U.S. government's official web portal to all federal, state and local government web resources and services.